sensor_id;sensor_type;location;lat;lon;timestamp;temperature;humidity
17370;DHT22;8802;52.402;4.920;2023-03-21T00:00:31;13.20;99.90
17370;DHT22;8802;52.402;4.920;2023-03-21T00:02:58;13.20;99.90
17370;DHT22;8802;52.402;4.920;2023-03-21T00:05:25;13.20;99.90
17370;DHT22;8802;52.402;4.920;2023-03-21T00:07:52;13.20;99.90
17370;DHT22;8802;52.402;4.920;2023-03-21T00:10:19;13.20;99.90
17370;DHT22;8802;52.402;4.920;2023-03-21T00:12:47;13.20;99.90
17370;DHT22;8802;52.402;4.920;2023-03-21T00:15:20;13.20;99.90
17370;DHT22;8802;52.402;4.920;2023-03-21T00:17:47;13.20;99.90
17370;DHT22;8802;52.402;4.920;2023-03-21T00:20:15;13.20;99.90
17370;DHT22;8802;52.402;4.920;2023-03-21T00:22:42;13.20;99.90
17370;DHT22;8802;52.402;4.920;2023-03-21T00:25:09;13.20;99.90
17370;DHT22;8802;52.402;4.920;2023-03-21T00:27:36;13.20;99.90
17370;DHT22;8802;52.402;4.920;2023-03-21T00:30:05;13.20;99.90
17370;DHT22;8802;52.402;4.920;2023-03-21T00:32:32;13.20;99.90
17370;DHT22;8802;52.402;4.920;2023-03-21T00:34:59;13.10;99.90
17370;DHT22;8802;52.402;4.920;2023-03-21T00:37:26;13.20;99.90
17370;DHT22;8802;52.402;4.920;2023-03-21T00:39:53;13.20;99.90
17370;DHT22;8802;52.402;4.920;2023-03-21T00:42:20;13.10;99.90
17370;DHT22;8802;52.402;4.920;2023-03-21T00:44:47;13.10;99.90
17370;DHT22;8802;52.402;4.920;2023-03-21T00:47:15;13.10;99.90
17370;DHT22;8802;52.402;4.920;2023-03-21T00:49:42;13.10;99.90
17370;DHT22;8802;52.402;4.920;2023-03-21T00:52:09;13.10;99.90
17370;DHT22;8802;52.402;4.920;2023-03-21T00:54:36;13.20;99.90
17370;DHT22;8802;52.402;4.920;2023-03-21T00:57:03;13.10;99.90
17370;DHT22;8802;52.402;4.920;2023-03-21T00:59:30;13.20;99.90
17370;DHT22;8802;52.402;4.920;2023-03-21T01:01:57;13.20;99.90
17370;DHT22;8802;52.402;4.920;2023-03-21T01:04:27;13.20;99.90
17370;DHT22;8802;52.402;4.920;2023-03-21T01:06:54;13.20;99.90
17370;DHT22;8802;52.402;4.920;2023-03-21T01:09:22;13.10;99.90
17370;DHT22;8802;52.402;4.920;2023-03-21T01:11:50;13.20;99.90
17370;DHT22;8802;52.402;4.920;2023-03-21T01:14:19;13.20;99.90
17370;DHT22;8802;52.402;4.920;2023-03-21T01:16:46;13.20;99.90
17370;DHT22;8802;52.402;4.920;2023-03-21T01:19:16;13.20;99.90
17370;DHT22;8802;52.402;4.920;2023-03-21T01:21:44;13.20;99.90
17370;DHT22;8802;52.402;4.920;2023-03-21T01:24:11;13.20;99.90
17370;DHT22;8802;52.402;4.920;2023-03-21T01:26:38;13.20;99.90
17370;DHT22;8802;52.402;4.920;2023-03-21T01:29:05;13.20;99.90
17370;DHT22;8802;52.402;4.920;2023-03-21T01:31:32;13.10;99.90
17370;DHT22;8802;52.402;4.920;2023-03-21T01:33:58;13.20;99.90
17370;DHT22;8802;52.402;4.920;2023-03-21T01:36:25;13.20;99.90
17370;DHT22;8802;52.402;4.920;2023-03-21T01:38:54;13.10;99.90
17370;DHT22;8802;52.402;4.920;2023-03-21T01:41:24;13.10;99.90
17370;DHT22;8802;52.402;4.920;2023-03-21T01:43:52;13.10;99.90
17370;DHT22;8802;52.402;4.920;2023-03-21T01:46:25;13.10;99.90
17370;DHT22;8802;52.402;4.920;2023-03-21T01:48:55;13.10;99.90
17370;DHT22;8802;52.402;4.920;2023-03-21T01:51:24;13.10;99.90
17370;DHT22;8802;52.402;4.920;2023-03-21T01:53:54;13.20;99.90
17370;DHT22;8802;52.402;4.920;2023-03-21T01:56:23;13.10;99.90
17370;DHT22;8802;52.402;4.920;2023-03-21T01:58:53;13.20;99.90
17370;DHT22;8802;52.402;4.920;2023-03-21T02:01:21;13.20;99.90
17370;DHT22;8802;52.402;4.920;2023-03-21T02:03:49;13.20;99.90
17370;DHT22;8802;52.402;4.920;2023-03-21T02:06:23;13.20;99.90
17370;DHT22;8802;52.402;4.920;2023-03-21T02:08:57;13.20;99.90
17370;DHT22;8802;52.402;4.920;2023-03-21T02:11:27;13.20;99.90
17370;DHT22;8802;52.402;4.920;2023-03-21T02:13:57;13.20;99.90
17370;DHT22;8802;52.402;4.920;2023-03-21T02:16:31;13.10;99.90
17370;DHT22;8802;52.402;4.920;2023-03-21T02:22:07;13.10;99.90
17370;DHT22;8802;52.402;4.920;2023-03-21T02:25:13;13.20;99.90
17370;DHT22;8802;52.402;4.920;2023-03-21T02:27:48;13.20;99.90
17370;DHT22;8802;52.402;4.920;2023-03-21T02:30:37;13.20;99.90
17370;DHT22;8802;52.402;4.920;2023-03-21T02:33:34;13.20;99.90
17370;DHT22;8802;52.402;4.920;2023-03-21T02:36:16;13.10;99.90
17370;DHT22;8802;52.402;4.920;2023-03-21T02:38:49;13.10;99.90
17370;DHT22;8802;52.402;4.920;2023-03-21T02:41:23;13.10;99.90
17370;DHT22;8802;52.402;4.920;2023-03-21T02:43:54;13.20;99.90
17370;DHT22;8802;52.402;4.920;2023-03-21T02:46:29;13.10;99.90
17370;DHT22;8802;52.402;4.920;2023-03-21T02:49:04;13.10;99.90
17370;DHT22;8802;52.402;4.920;2023-03-21T02:51:34;13.10;99.90
17370;DHT22;8802;52.402;4.920;2023-03-21T02:54:08;13.10;99.90
17370;DHT22;8802;52.402;4.920;2023-03-21T02:56:36;13.10;99.90
17370;DHT22;8802;52.402;4.920;2023-03-21T02:59:05;13.10;99.90
17370;DHT22;8802;52.402;4.920;2023-03-21T03:01:33;13.10;99.90
17370;DHT22;8802;52.402;4.920;2023-03-21T03:04:00;13.10;99.90
17370;DHT22;8802;52.402;4.920;2023-03-21T03:06:30;13.10;99.90
17370;DHT22;8802;52.402;4.920;2023-03-21T03:09:15;13.10;99.90
17370;DHT22;8802;52.402;4.920;2023-03-21T03:11:46;13.10;99.90
17370;DHT22;8802;52.402;4.920;2023-03-21T03:14:33;13.10;99.90
17370;DHT22;8802;52.402;4.920;2023-03-21T03:17:16;13.10;99.90
17370;DHT22;8802;52.402;4.920;2023-03-21T03:19:53;13.10;99.90
17370;DHT22;8802;52.402;4.920;2023-03-21T03:22:25;13.10;99.90
17370;DHT22;8802;52.402;4.920;2023-03-21T03:25:00;13.10;99.90
17370;DHT22;8802;52.402;4.920;2023-03-21T03:27:33;13.10;99.90
17370;DHT22;8802;52.402;4.920;2023-03-21T03:30:03;13.10;99.90
17370;DHT22;8802;52.402;4.920;2023-03-21T03:32:34;13.10;99.90
17370;DHT22;8802;52.402;4.920;2023-03-21T03:35:04;13.10;99.90
17370;DHT22;8802;52.402;4.920;2023-03-21T03:37:33;13.10;99.90
17370;DHT22;8802;52.402;4.920;2023-03-21T03:40:05;13.10;99.90
17370;DHT22;8802;52.402;4.920;2023-03-21T03:42:35;13.10;99.90
17370;DHT22;8802;52.402;4.920;2023-03-21T03:45:05;13.10;99.90
17370;DHT22;8802;52.402;4.920;2023-03-21T03:47:35;13.10;99.90
17370;DHT22;8802;52.402;4.920;2023-03-21T03:50:08;13.10;99.90
17370;DHT22;8802;52.402;4.920;2023-03-21T03:52:41;13.10;99.90
17370;DHT22;8802;52.402;4.920;2023-03-21T03:55:13;13.10;99.90
17370;DHT22;8802;52.402;4.920;2023-03-21T03:57:42;13.10;99.90
17370;DHT22;8802;52.402;4.920;2023-03-21T04:00:11;13.10;99.90
17370;DHT22;8802;52.402;4.920;2023-03-21T04:02:39;13.10;99.90
17370;DHT22;8802;52.402;4.920;2023-03-21T04:05:07;13.10;99.90
17370;DHT22;8802;52.402;4.920;2023-03-21T04:07:34;13.10;99.90
17370;DHT22;8802;52.402;4.920;2023-03-21T04:10:01;13.10;99.90
17370;DHT22;8802;52.402;4.920;2023-03-21T04:12:30;13.10;99.90
17370;DHT22;8802;52.402;4.920;2023-03-21T04:14:56;13.00;99.90
17370;DHT22;8802;52.402;4.920;2023-03-21T04:17:23;13.10;99.90
17370;DHT22;8802;52.402;4.920;2023-03-21T04:19:50;13.10;99.90
17370;DHT22;8802;52.402;4.920;2023-03-21T04:22:17;13.00;99.90
17370;DHT22;8802;52.402;4.920;2023-03-21T04:24:45;13.10;99.90
17370;DHT22;8802;52.402;4.920;2023-03-21T04:27:12;13.10;99.90
17370;DHT22;8802;52.402;4.920;2023-03-21T04:29:41;13.10;99.90
17370;DHT22;8802;52.402;4.920;2023-03-21T04:32:08;13.10;99.90
17370;DHT22;8802;52.402;4.920;2023-03-21T04:34:41;13.00;99.90
17370;DHT22;8802;52.402;4.920;2023-03-21T04:37:08;13.10;99.90
17370;DHT22;8802;52.402;4.920;2023-03-21T04:39:36;13.00;99.90
17370;DHT22;8802;52.402;4.920;2023-03-21T04:42:03;13.10;99.90
17370;DHT22;8802;52.402;4.920;2023-03-21T04:44:30;13.10;99.90
17370;DHT22;8802;52.402;4.920;2023-03-21T04:46:58;13.00;99.90
17370;DHT22;8802;52.402;4.920;2023-03-21T04:49:25;13.00;99.90
17370;DHT22;8802;52.402;4.920;2023-03-21T04:51:52;13.00;99.90
17370;DHT22;8802;52.402;4.920;2023-03-21T04:54:19;13.00;99.90
17370;DHT22;8802;52.402;4.920;2023-03-21T04:56:47;13.00;99.90
17370;DHT22;8802;52.402;4.920;2023-03-21T04:59:15;13.00;99.90
17370;DHT22;8802;52.402;4.920;2023-03-21T05:01:41;13.00;99.90
17370;DHT22;8802;52.402;4.920;2023-03-21T05:04:11;13.00;99.90
17370;DHT22;8802;52.402;4.920;2023-03-21T05:06:39;13.00;99.90
17370;DHT22;8802;52.402;4.920;2023-03-21T05:09:07;13.00;99.90
17370;DHT22;8802;52.402;4.920;2023-03-21T05:11:35;13.00;99.90
17370;DHT22;8802;52.402;4.920;2023-03-21T05:14:03;13.00;99.90
17370;DHT22;8802;52.402;4.920;2023-03-21T05:16:30;13.00;99.90
17370;DHT22;8802;52.402;4.920;2023-03-21T05:19:00;13.00;99.90
17370;DHT22;8802;52.402;4.920;2023-03-21T05:21:30;13.00;99.90
17370;DHT22;8802;52.402;4.920;2023-03-21T05:23:58;13.00;99.90
17370;DHT22;8802;52.402;4.920;2023-03-21T05:26:28;13.00;99.90
17370;DHT22;8802;52.402;4.920;2023-03-21T05:28:55;13.00;99.90
17370;DHT22;8802;52.402;4.920;2023-03-21T05:31:22;13.00;99.90
17370;DHT22;8802;52.402;4.920;2023-03-21T05:33:49;13.00;99.90
17370;DHT22;8802;52.402;4.920;2023-03-21T05:36:16;13.00;99.90
17370;DHT22;8802;52.402;4.920;2023-03-21T05:38:44;12.90;99.90
17370;DHT22;8802;52.402;4.920;2023-03-21T05:41:11;13.00;99.90
17370;DHT22;8802;52.402;4.920;2023-03-21T05:43:38;12.90;99.90
17370;DHT22;8802;52.402;4.920;2023-03-21T05:46:05;13.00;99.90
17370;DHT22;8802;52.402;4.920;2023-03-21T05:48:32;13.00;99.90
17370;DHT22;8802;52.402;4.920;2023-03-21T05:50:59;12.90;99.90
17370;DHT22;8802;52.402;4.920;2023-03-21T05:53:26;13.00;99.90
17370;DHT22;8802;52.402;4.920;2023-03-21T05:55:54;13.00;99.90
17370;DHT22;8802;52.402;4.920;2023-03-21T05:58:21;13.00;99.90
17370;DHT22;8802;52.402;4.920;2023-03-21T06:00:48;13.00;99.90
17370;DHT22;8802;52.402;4.920;2023-03-21T06:03:16;13.00;99.90
17370;DHT22;8802;52.402;4.920;2023-03-21T06:05:43;13.00;99.90
17370;DHT22;8802;52.402;4.920;2023-03-21T06:08:10;12.90;99.90
17370;DHT22;8802;52.402;4.920;2023-03-21T06:10:37;13.00;99.90
17370;DHT22;8802;52.402;4.920;2023-03-21T06:13:05;13.00;99.90
17370;DHT22;8802;52.402;4.920;2023-03-21T06:15:32;13.00;99.90
17370;DHT22;8802;52.402;4.920;2023-03-21T06:17:59;13.00;99.90
17370;DHT22;8802;52.402;4.920;2023-03-21T06:20:26;13.00;99.90
17370;DHT22;8802;52.402;4.920;2023-03-21T06:22:53;13.00;99.90
17370;DHT22;8802;52.402;4.920;2023-03-21T06:25:20;13.00;99.90
17370;DHT22;8802;52.402;4.920;2023-03-21T06:27:46;13.00;99.90
17370;DHT22;8802;52.402;4.920;2023-03-21T06:30:17;13.00;99.90
17370;DHT22;8802;52.402;4.920;2023-03-21T06:32:43;13.00;99.90
17370;DHT22;8802;52.402;4.920;2023-03-21T06:35:10;13.00;99.90
17370;DHT22;8802;52.402;4.920;2023-03-21T06:37:37;13.00;99.90
17370;DHT22;8802;52.402;4.920;2023-03-21T06:40:05;13.00;99.90
17370;DHT22;8802;52.402;4.920;2023-03-21T06:42:33;13.00;99.90
17370;DHT22;8802;52.402;4.920;2023-03-21T06:45:00;13.00;99.90
17370;DHT22;8802;52.402;4.920;2023-03-21T06:47:29;13.00;99.90
17370;DHT22;8802;52.402;4.920;2023-03-21T06:49:56;13.00;99.90
17370;DHT22;8802;52.402;4.920;2023-03-21T06:52:22;13.10;99.90
17370;DHT22;8802;52.402;4.920;2023-03-21T06:54:49;13.00;99.90
17370;DHT22;8802;52.402;4.920;2023-03-21T06:57:16;13.00;99.90
17370;DHT22;8802;52.402;4.920;2023-03-21T06:59:45;13.00;99.90
17370;DHT22;8802;52.402;4.920;2023-03-21T07:02:12;13.00;99.90
17370;DHT22;8802;52.402;4.920;2023-03-21T07:04:40;13.10;99.90
17370;DHT22;8802;52.402;4.920;2023-03-21T07:07:07;13.00;99.90
17370;DHT22;8802;52.402;4.920;2023-03-21T07:09:34;13.00;99.90
17370;DHT22;8802;52.402;4.920;2023-03-21T07:12:01;13.10;99.90
17370;DHT22;8802;52.402;4.920;2023-03-21T07:14:28;13.10;99.90
17370;DHT22;8802;52.402;4.920;2023-03-21T07:16:56;13.10;99.90
17370;DHT22;8802;52.402;4.920;2023-03-21T07:19:23;13.00;99.90
17370;DHT22;8802;52.402;4.920;2023-03-21T07:21:52;13.10;99.90
17370;DHT22;8802;52.402;4.920;2023-03-21T07:24:19;13.10;99.90
17370;DHT22;8802;52.402;4.920;2023-03-21T07:26:45;13.10;99.90
17370;DHT22;8802;52.402;4.920;2023-03-21T07:29:12;13.10;99.90
17370;DHT22;8802;52.402;4.920;2023-03-21T07:31:39;13.10;99.90
17370;DHT22;8802;52.402;4.920;2023-03-21T07:34:06;13.00;99.90
17370;DHT22;8802;52.402;4.920;2023-03-21T07:36:33;13.10;99.90
17370;DHT22;8802;52.402;4.920;2023-03-21T07:39:03;13.10;99.90
17370;DHT22;8802;52.402;4.920;2023-03-21T07:41:29;13.10;99.90
17370;DHT22;8802;52.402;4.920;2023-03-21T07:43:56;13.10;99.90
17370;DHT22;8802;52.402;4.920;2023-03-21T07:46:23;13.10;99.90
17370;DHT22;8802;52.402;4.920;2023-03-21T07:48:50;13.10;99.90
17370;DHT22;8802;52.402;4.920;2023-03-21T07:51:17;13.00;99.90
17370;DHT22;8802;52.402;4.920;2023-03-21T07:53:44;13.10;99.90
17370;DHT22;8802;52.402;4.920;2023-03-21T07:56:14;13.10;99.90
17370;DHT22;8802;52.402;4.920;2023-03-21T07:58:41;13.00;99.90
17370;DHT22;8802;52.402;4.920;2023-03-21T08:01:08;13.00;99.90
17370;DHT22;8802;52.402;4.920;2023-03-21T08:03:35;13.00;99.90
17370;DHT22;8802;52.402;4.920;2023-03-21T08:06:02;13.00;99.90
17370;DHT22;8802;52.402;4.920;2023-03-21T08:08:29;13.00;99.90
17370;DHT22;8802;52.402;4.920;2023-03-21T08:10:56;13.00;99.90
17370;DHT22;8802;52.402;4.920;2023-03-21T08:13:25;13.00;99.90
17370;DHT22;8802;52.402;4.920;2023-03-21T08:15:52;13.00;99.90
17370;DHT22;8802;52.402;4.920;2023-03-21T08:18:19;13.00;99.90
17370;DHT22;8802;52.402;4.920;2023-03-21T08:20:50;13.00;99.90
17370;DHT22;8802;52.402;4.920;2023-03-21T08:23:17;13.00;99.90
17370;DHT22;8802;52.402;4.920;2023-03-21T08:25:45;13.00;99.90
17370;DHT22;8802;52.402;4.920;2023-03-21T08:28:12;13.00;99.90
17370;DHT22;8802;52.402;4.920;2023-03-21T08:30:40;13.00;99.90
17370;DHT22;8802;52.402;4.920;2023-03-21T08:33:11;13.00;99.90
17370;DHT22;8802;52.402;4.920;2023-03-21T08:35:38;13.00;99.90
17370;DHT22;8802;52.402;4.920;2023-03-21T08:38:06;13.00;99.90
17370;DHT22;8802;52.402;4.920;2023-03-21T08:40:33;13.00;99.90
17370;DHT22;8802;52.402;4.920;2023-03-21T08:43:01;13.00;99.90
17370;DHT22;8802;52.402;4.920;2023-03-21T08:45:28;12.90;99.90
17370;DHT22;8802;52.402;4.920;2023-03-21T08:47:57;13.00;99.90
17370;DHT22;8802;52.402;4.920;2023-03-21T08:50:25;13.00;99.90
17370;DHT22;8802;52.402;4.920;2023-03-21T08:52:54;13.00;99.90
17370;DHT22;8802;52.402;4.920;2023-03-21T08:55:21;13.00;99.90
17370;DHT22;8802;52.402;4.920;2023-03-21T08:57:48;13.00;99.90
17370;DHT22;8802;52.402;4.920;2023-03-21T09:00:16;13.00;99.90
17370;DHT22;8802;52.402;4.920;2023-03-21T09:02:46;13.00;99.90
17370;DHT22;8802;52.402;4.920;2023-03-21T09:05:15;13.00;99.90
17370;DHT22;8802;52.402;4.920;2023-03-21T09:07:43;13.10;99.90
17370;DHT22;8802;52.402;4.920;2023-03-21T09:10:13;13.10;99.90
17370;DHT22;8802;52.402;4.920;2023-03-21T09:12:40;13.10;99.90
17370;DHT22;8802;52.402;4.920;2023-03-21T09:15:08;13.10;99.90
17370;DHT22;8802;52.402;4.920;2023-03-21T09:17:36;13.20;99.90
17370;DHT22;8802;52.402;4.920;2023-03-21T09:20:09;13.20;99.90
17370;DHT22;8802;52.402;4.920;2023-03-21T09:22:44;13.20;99.90
17370;DHT22;8802;52.402;4.920;2023-03-21T09:25:12;13.20;99.90
17370;DHT22;8802;52.402;4.920;2023-03-21T09:27:38;13.30;99.90
17370;DHT22;8802;52.402;4.920;2023-03-21T09:30:07;13.30;99.90
17370;DHT22;8802;52.402;4.920;2023-03-21T09:32:35;13.30;99.90
17370;DHT22;8802;52.402;4.920;2023-03-21T09:35:03;13.40;99.90
17370;DHT22;8802;52.402;4.920;2023-03-21T09:37:31;13.40;99.90
17370;DHT22;8802;52.402;4.920;2023-03-21T09:39:59;13.40;99.90
17370;DHT22;8802;52.402;4.920;2023-03-21T09:42:32;13.50;99.90
17370;DHT22;8802;52.402;4.920;2023-03-21T09:45:09;13.50;99.90
17370;DHT22;8802;52.402;4.920;2023-03-21T09:47:40;13.60;99.90
17370;DHT22;8802;52.402;4.920;2023-03-21T09:50:13;13.60;99.90
17370;DHT22;8802;52.402;4.920;2023-03-21T09:52:47;13.60;99.90
17370;DHT22;8802;52.402;4.920;2023-03-21T09:55:18;13.70;99.90
17370;DHT22;8802;52.402;4.920;2023-03-21T09:57:48;13.80;99.90
17370;DHT22;8802;52.402;4.920;2023-03-21T10:00:21;13.80;99.90
17370;DHT22;8802;52.402;4.920;2023-03-21T10:02:53;13.80;99.90
17370;DHT22;8802;52.402;4.920;2023-03-21T10:05:26;13.90;99.90
17370;DHT22;8802;52.402;4.920;2023-03-21T10:07:57;13.90;99.90
17370;DHT22;8802;52.402;4.920;2023-03-21T10:10:31;13.90;99.90
17370;DHT22;8802;52.402;4.920;2023-03-21T10:13:00;14.00;99.90
17370;DHT22;8802;52.402;4.920;2023-03-21T10:15:27;14.00;99.90
17370;DHT22;8802;52.402;4.920;2023-03-21T10:17:58;14.00;99.90
17370;DHT22;8802;52.402;4.920;2023-03-21T10:20:29;14.00;99.90
17370;DHT22;8802;52.402;4.920;2023-03-21T10:22:59;14.10;99.90
17370;DHT22;8802;52.402;4.920;2023-03-21T10:25:32;14.10;99.90
17370;DHT22;8802;52.402;4.920;2023-03-21T10:28:01;14.10;99.90
17370;DHT22;8802;52.402;4.920;2023-03-21T10:30:36;14.10;99.90
17370;DHT22;8802;52.402;4.920;2023-03-21T10:33:06;14.20;99.90
17370;DHT22;8802;52.402;4.920;2023-03-21T10:35:34;14.20;99.90
17370;DHT22;8802;52.402;4.920;2023-03-21T10:38:02;14.20;99.90
17370;DHT22;8802;52.402;4.920;2023-03-21T10:40:31;14.20;99.90
17370;DHT22;8802;52.402;4.920;2023-03-21T10:43:17;14.30;99.90
17370;DHT22;8802;52.402;4.920;2023-03-21T10:45:45;14.30;99.90
17370;DHT22;8802;52.402;4.920;2023-03-21T10:48:13;14.30;99.90
17370;DHT22;8802;52.402;4.920;2023-03-21T10:50:41;14.30;99.90
17370;DHT22;8802;52.402;4.920;2023-03-21T10:53:17;14.40;99.90
17370;DHT22;8802;52.402;4.920;2023-03-21T10:55:47;14.40;99.90
17370;DHT22;8802;52.402;4.920;2023-03-21T10:58:18;14.50;99.90
17370;DHT22;8802;52.402;4.920;2023-03-21T11:00:54;14.50;99.90
17370;DHT22;8802;52.402;4.920;2023-03-21T11:03:25;14.50;99.90
17370;DHT22;8802;52.402;4.920;2023-03-21T11:05:59;14.60;99.90
17370;DHT22;8802;52.402;4.920;2023-03-21T11:08:27;14.60;99.90
17370;DHT22;8802;52.402;4.920;2023-03-21T11:11:01;14.70;99.90
17370;DHT22;8802;52.402;4.920;2023-03-21T11:13:33;14.70;99.90
17370;DHT22;8802;52.402;4.920;2023-03-21T11:16:06;14.70;99.90
17370;DHT22;8802;52.402;4.920;2023-03-21T11:18:40;14.70;99.90
17370;DHT22;8802;52.402;4.920;2023-03-21T11:21:09;14.70;99.90
17370;DHT22;8802;52.402;4.920;2023-03-21T11:23:40;14.80;99.90
17370;DHT22;8802;52.402;4.920;2023-03-21T11:26:15;14.80;99.90
17370;DHT22;8802;52.402;4.920;2023-03-21T11:28:42;14.80;99.90
17370;DHT22;8802;52.402;4.920;2023-03-21T11:31:10;14.80;99.90
17370;DHT22;8802;52.402;4.920;2023-03-21T11:33:39;14.80;99.90
17370;DHT22;8802;52.402;4.920;2023-03-21T11:36:26;14.80;99.90
17370;DHT22;8802;52.402;4.920;2023-03-21T11:39:01;14.90;99.90
17370;DHT22;8802;52.402;4.920;2023-03-21T11:41:31;14.90;99.90
17370;DHT22;8802;52.402;4.920;2023-03-21T11:43:59;14.90;99.90
17370;DHT22;8802;52.402;4.920;2023-03-21T11:46:27;15.00;99.90
17370;DHT22;8802;52.402;4.920;2023-03-21T11:48:56;15.00;99.90
17370;DHT22;8802;52.402;4.920;2023-03-21T11:51:27;15.00;99.90
17370;DHT22;8802;52.402;4.920;2023-03-21T11:54:00;15.10;99.90
17370;DHT22;8802;52.402;4.920;2023-03-21T11:56:34;15.10;99.90
17370;DHT22;8802;52.402;4.920;2023-03-21T11:59:23;15.10;99.90
17370;DHT22;8802;52.402;4.920;2023-03-21T12:02:02;15.20;99.90
17370;DHT22;8802;52.402;4.920;2023-03-21T12:04:37;15.20;99.90
17370;DHT22;8802;52.402;4.920;2023-03-21T12:07:22;15.30;99.90
17370;DHT22;8802;52.402;4.920;2023-03-21T12:09:59;15.30;99.90
17370;DHT22;8802;52.402;4.920;2023-03-21T12:12:39;15.40;99.90
17370;DHT22;8802;52.402;4.920;2023-03-21T12:15:14;15.40;99.90
17370;DHT22;8802;52.402;4.920;2023-03-21T12:17:50;15.40;99.90
17370;DHT22;8802;52.402;4.920;2023-03-21T12:20:32;15.50;99.90
17370;DHT22;8802;52.402;4.920;2023-03-21T12:23:23;15.50;99.90
17370;DHT22;8802;52.402;4.920;2023-03-21T12:25:59;15.50;99.90
17370;DHT22;8802;52.402;4.920;2023-03-21T12:28:38;15.60;99.90
17370;DHT22;8802;52.402;4.920;2023-03-21T12:31:14;15.60;99.90
17370;DHT22;8802;52.402;4.920;2023-03-21T12:33:57;15.70;99.90
17370;DHT22;8802;52.402;4.920;2023-03-21T12:36:42;15.70;99.90
17370;DHT22;8802;52.402;4.920;2023-03-21T12:39:22;15.70;99.90
17370;DHT22;8802;52.402;4.920;2023-03-21T12:42:02;15.80;99.90
17370;DHT22;8802;52.402;4.920;2023-03-21T12:44:36;15.80;99.90
17370;DHT22;8802;52.402;4.920;2023-03-21T12:47:08;15.90;99.90
17370;DHT22;8802;52.402;4.920;2023-03-21T12:49:40;16.00;99.90
17370;DHT22;8802;52.402;4.920;2023-03-21T12:52:11;16.10;99.90
17370;DHT22;8802;52.402;4.920;2023-03-21T12:54:43;16.20;99.90
17370;DHT22;8802;52.402;4.920;2023-03-21T12:57:14;16.20;99.90
17370;DHT22;8802;52.402;4.920;2023-03-21T12:59:49;16.30;99.60
17370;DHT22;8802;52.402;4.920;2023-03-21T13:02:25;16.30;99.70
17370;DHT22;8802;52.402;4.920;2023-03-21T13:04:57;16.40;99.50
17370;DHT22;8802;52.402;4.920;2023-03-21T13:07:28;16.40;99.30
17370;DHT22;8802;52.402;4.920;2023-03-21T13:09:57;16.40;99.10
17370;DHT22;8802;52.402;4.920;2023-03-21T13:12:44;16.40;99.10
17370;DHT22;8802;52.402;4.920;2023-03-21T13:15:43;16.40;98.80
17370;DHT22;8802;52.402;4.920;2023-03-21T13:18:22;16.40;98.70
17370;DHT22;8802;52.402;4.920;2023-03-21T13:20:53;16.40;98.90
17370;DHT22;8802;52.402;4.920;2023-03-21T13:23:22;16.40;98.80
17370;DHT22;8802;52.402;4.920;2023-03-21T13:25:51;16.40;98.90
17370;DHT22;8802;52.402;4.920;2023-03-21T13:28:20;16.30;98.80
17370;DHT22;8802;52.402;4.920;2023-03-21T13:30:49;16.30;98.70
17370;DHT22;8802;52.402;4.920;2023-03-21T13:33:21;16.30;98.60
17370;DHT22;8802;52.402;4.920;2023-03-21T13:35:57;16.30;98.50
17370;DHT22;8802;52.402;4.920;2023-03-21T13:38:26;16.30;98.60
17370;DHT22;8802;52.402;4.920;2023-03-21T13:40:58;16.30;98.70
17370;DHT22;8802;52.402;4.920;2023-03-21T13:43:39;16.30;98.60
17370;DHT22;8802;52.402;4.920;2023-03-21T13:46:09;16.30;98.60
17370;DHT22;8802;52.402;4.920;2023-03-21T13:48:53;16.30;98.70
17370;DHT22;8802;52.402;4.920;2023-03-21T13:51:40;16.20;98.70
17370;DHT22;8802;52.402;4.920;2023-03-21T13:54:17;16.30;98.80
17370;DHT22;8802;52.402;4.920;2023-03-21T13:56:49;16.20;98.70
17370;DHT22;8802;52.402;4.920;2023-03-21T13:59:18;16.30;98.70
17370;DHT22;8802;52.402;4.920;2023-03-21T14:02:15;16.20;98.70
17370;DHT22;8802;52.402;4.920;2023-03-21T14:04:44;16.20;98.80
17370;DHT22;8802;52.402;4.920;2023-03-21T14:07:13;16.20;98.70
17370;DHT22;8802;52.402;4.920;2023-03-21T14:09:44;16.20;98.60
17370;DHT22;8802;52.402;4.920;2023-03-21T14:12:14;16.20;98.70
17370;DHT22;8802;52.402;4.920;2023-03-21T14:14:45;16.20;98.30
17370;DHT22;8802;52.402;4.920;2023-03-21T14:17:21;16.20;98.50
17370;DHT22;8802;52.402;4.920;2023-03-21T14:19:51;16.20;98.50
17370;DHT22;8802;52.402;4.920;2023-03-21T14:22:18;16.20;98.30
17370;DHT22;8802;52.402;4.920;2023-03-21T14:24:48;16.20;98.70
17370;DHT22;8802;52.402;4.920;2023-03-21T14:27:21;16.20;98.90
17370;DHT22;8802;52.402;4.920;2023-03-21T14:29:48;16.20;98.70
17370;DHT22;8802;52.402;4.920;2023-03-21T14:32:22;16.10;98.90
17370;DHT22;8802;52.402;4.920;2023-03-21T14:34:52;16.10;99.10
17370;DHT22;8802;52.402;4.920;2023-03-21T14:37:30;16.10;99.00
17370;DHT22;8802;52.402;4.920;2023-03-21T14:39:59;16.00;99.10
17370;DHT22;8802;52.402;4.920;2023-03-21T14:42:26;16.00;99.30
17370;DHT22;8802;52.402;4.920;2023-03-21T14:44:53;16.00;99.10
17370;DHT22;8802;52.402;4.920;2023-03-21T14:47:28;16.00;99.00
17370;DHT22;8802;52.402;4.920;2023-03-21T14:49:57;15.90;99.10
17370;DHT22;8802;52.402;4.920;2023-03-21T14:52:29;15.90;99.10
17370;DHT22;8802;52.402;4.920;2023-03-21T14:55:00;15.90;99.00
17370;DHT22;8802;52.402;4.920;2023-03-21T14:57:30;15.90;99.20
17370;DHT22;8802;52.402;4.920;2023-03-21T15:00:00;15.80;99.10
17370;DHT22;8802;52.402;4.920;2023-03-21T15:02:34;15.90;99.10
17370;DHT22;8802;52.402;4.920;2023-03-21T15:05:09;15.80;99.00
17370;DHT22;8802;52.402;4.920;2023-03-21T15:07:36;15.80;99.10
17370;DHT22;8802;52.402;4.920;2023-03-21T15:10:05;15.80;99.10
17370;DHT22;8802;52.402;4.920;2023-03-21T15:12:32;15.70;99.30
17370;DHT22;8802;52.402;4.920;2023-03-21T15:15:00;15.70;99.30
17370;DHT22;8802;52.402;4.920;2023-03-21T15:17:28;15.70;99.30
17370;DHT22;8802;52.402;4.920;2023-03-21T15:19:56;15.70;99.50
17370;DHT22;8802;52.402;4.920;2023-03-21T15:22:29;15.60;99.60
17370;DHT22;8802;52.402;4.920;2023-03-21T15:24:58;15.60;99.70
17370;DHT22;8802;52.402;4.920;2023-03-21T15:27:29;15.60;99.80
17370;DHT22;8802;52.402;4.920;2023-03-21T15:29:57;15.60;99.90
17370;DHT22;8802;52.402;4.920;2023-03-21T15:32:26;15.50;99.90
17370;DHT22;8802;52.402;4.920;2023-03-21T15:34:55;15.50;99.90
17370;DHT22;8802;52.402;4.920;2023-03-21T15:37:33;15.50;99.90
17370;DHT22;8802;52.402;4.920;2023-03-21T15:40:14;15.50;99.90
17370;DHT22;8802;52.402;4.920;2023-03-21T15:42:42;15.50;99.90
17370;DHT22;8802;52.402;4.920;2023-03-21T15:45:16;15.50;99.90
17370;DHT22;8802;52.402;4.920;2023-03-21T15:47:51;15.40;99.90
17370;DHT22;8802;52.402;4.920;2023-03-21T15:50:24;15.40;99.90
17370;DHT22;8802;52.402;4.920;2023-03-21T15:52:54;15.40;99.90
17370;DHT22;8802;52.402;4.920;2023-03-21T15:55:23;15.40;99.90
17370;DHT22;8802;52.402;4.920;2023-03-21T15:57:54;15.40;99.90
17370;DHT22;8802;52.402;4.920;2023-03-21T16:00:37;15.30;99.90
17370;DHT22;8802;52.402;4.920;2023-03-21T16:03:09;15.30;99.90
17370;DHT22;8802;52.402;4.920;2023-03-21T16:05:41;15.40;99.90
17370;DHT22;8802;52.402;4.920;2023-03-21T16:08:19;15.30;99.90